createdAt,value
2018-08-07T00:00:25.264Z,36.90
2018-08-07T00:02:54.199Z,36.70
2018-08-07T00:05:23.170Z,36.70
2018-08-07T00:07:53.271Z,36.60
2018-08-07T00:10:23.642Z,36.60
2018-08-07T00:15:22.628Z,36.50
2018-08-07T00:17:51.529Z,36.50
2018-08-07T00:20:20.453Z,36.50
2018-08-07T00:22:49.338Z,36.60
2018-08-07T00:25:18.193Z,36.50
2018-08-07T00:27:47.067Z,36.60
2018-08-07T00:30:16.802Z,36.70
2018-08-07T00:32:46.040Z,36.80
2018-08-07T00:35:19.218Z,36.80
2018-08-07T00:37:48.499Z,36.70
2018-08-07T00:40:18.438Z,37.40
2018-08-07T00:42:47.941Z,37.00
2018-08-07T00:45:20.062Z,37.00
2018-08-07T00:47:49.392Z,37.00
2018-08-07T00:50:20.624Z,37.10
2018-08-07T00:52:50.280Z,37.10
2018-08-07T00:55:19.924Z,37.10
2018-08-07T00:57:49.491Z,37.20
2018-08-07T01:00:18.583Z,37.30
2018-08-07T01:02:47.499Z,37.20
2018-08-07T01:05:17.413Z,37.20
2018-08-07T01:07:46.315Z,37.20
2018-08-07T01:10:16.638Z,37.30
2018-08-07T01:12:45.553Z,37.30
2018-08-07T01:15:17.264Z,37.40
2018-08-07T01:17:46.585Z,38.10
2018-08-07T01:20:16.790Z,37.60
2018-08-07T01:22:45.868Z,37.60
2018-08-07T01:25:17.648Z,37.10
2018-08-07T01:27:46.557Z,37.70
2018-08-07T01:30:18.106Z,37.70
2018-08-07T01:32:47.103Z,37.80
2018-08-07T01:35:16.001Z,37.90
2018-08-07T01:37:44.891Z,37.90
2018-08-07T01:40:13.792Z,37.90
2018-08-07T01:42:42.829Z,38.00
2018-08-07T01:45:11.931Z,38.10
2018-08-07T01:47:41.276Z,38.20
2018-08-07T01:50:12.569Z,38.20
2018-08-07T01:52:41.424Z,37.70
2018-08-07T01:55:13.784Z,38.20
2018-08-07T01:57:42.674Z,38.30
2018-08-07T02:00:12.826Z,38.30
2018-08-07T02:02:41.733Z,38.40
2018-08-07T02:05:12.067Z,38.50
2018-08-07T02:07:41.902Z,38.50
2018-08-07T02:10:13.153Z,38.50
2018-08-07T02:12:42.020Z,38.50
2018-08-07T02:15:11.786Z,38.60
2018-08-07T02:17:40.675Z,38.90
2018-08-07T02:20:11.823Z,38.80
2018-08-07T02:22:41.380Z,38.90
2018-08-07T02:25:12.529Z,38.90
2018-08-07T02:27:41.530Z,38.90
2018-08-07T02:30:11.804Z,39.00
2018-08-07T02:32:40.926Z,39.00
2018-08-07T02:35:11.325Z,39.10
2018-08-07T02:37:40.926Z,39.10
2018-08-07T02:40:10.852Z,39.20
2018-08-07T02:42:39.801Z,39.30
2018-08-07T02:45:10.967Z,39.40
2018-08-07T02:47:40.444Z,39.40
2018-08-07T02:50:10.594Z,39.50
2018-08-07T02:52:39.597Z,39.60
2018-08-07T02:55:09.820Z,39.60
2018-08-07T02:57:39.292Z,39.70
2018-08-07T03:00:11.062Z,39.80
2018-08-07T03:02:39.929Z,39.80
2018-08-07T03:05:09.671Z,39.90
2018-08-07T03:07:38.993Z,39.80
2018-08-07T03:10:09.010Z,39.90
2018-08-07T03:12:38.211Z,40.00
2018-08-07T03:15:11.193Z,40.10
2018-08-07T03:17:40.183Z,40.10
2018-08-07T03:20:09.377Z,40.20
2018-08-07T03:22:38.828Z,40.30
2018-08-07T03:25:09.315Z,40.30
2018-08-07T03:27:38.264Z,40.70
2018-08-07T03:30:09.534Z,40.30
2018-08-07T03:32:38.494Z,40.30
2018-08-07T03:35:07.747Z,40.40
2018-08-07T03:37:37.415Z,40.60
2018-08-07T03:40:08.424Z,40.70
2018-08-07T03:42:37.379Z,40.60
2018-08-07T03:45:07.086Z,40.70
2018-08-07T03:47:36.219Z,40.60
2018-08-07T03:50:05.832Z,40.70
2018-08-07T03:52:34.936Z,40.80
2018-08-07T03:55:07.806Z,40.80
2018-08-07T03:57:36.782Z,40.80
2018-08-07T04:00:08.865Z,40.80
2018-08-07T04:02:37.804Z,40.90
2018-08-07T04:05:07.164Z,41.00
2018-08-07T04:07:36.489Z,41.00
2018-08-07T04:10:06.350Z,41.10
2018-08-07T04:12:35.329Z,41.10
2018-08-07T04:15:06.466Z,41.20
2018-08-07T04:17:35.522Z,41.20
2018-08-07T04:20:06.623Z,41.20
2018-08-07T04:22:35.533Z,41.40
2018-08-07T04:25:05.205Z,41.50
2018-08-07T04:27:34.102Z,41.40
2018-08-07T04:30:03.114Z,41.50
2018-08-07T04:32:32.054Z,41.60
2018-08-07T04:35:00.958Z,41.60
2018-08-07T04:37:29.830Z,41.70
2018-08-07T04:39:58.998Z,41.70
2018-08-07T04:42:27.872Z,41.80
2018-08-07T04:44:56.872Z,41.80
2018-08-07T04:47:25.794Z,41.80
2018-08-07T04:49:54.681Z,41.90
2018-08-07T04:52:23.593Z,42.70
2018-08-07T04:54:52.482Z,43.10
2018-08-07T04:57:21.348Z,42.80
2018-08-07T04:59:50.186Z,42.90
2018-08-07T05:02:19.107Z,42.80
2018-08-07T05:04:48.031Z,45.00
2018-08-07T05:07:17.278Z,46.60
2018-08-07T05:09:46.676Z,46.10
2018-08-07T05:12:15.649Z,46.50
2018-08-07T05:14:44.548Z,45.70
2018-08-07T05:17:13.412Z,45.00
2018-08-07T05:19:42.411Z,45.00
2018-08-07T05:22:11.296Z,44.50
2018-08-07T05:24:40.151Z,44.00
2018-08-07T05:27:08.998Z,43.90
2018-08-07T05:29:37.862Z,43.80
2018-08-07T05:32:06.798Z,43.70
2018-08-07T05:34:35.725Z,43.60
2018-08-07T05:37:04.957Z,43.60
2018-08-07T05:39:33.926Z,43.30
2018-08-07T05:42:02.833Z,44.20
2018-08-07T05:44:31.753Z,44.80
2018-08-07T05:47:01.149Z,44.40
2018-08-07T05:49:30.230Z,44.10
2018-08-07T05:51:59.410Z,44.50
2018-08-07T05:54:28.589Z,44.60
2018-08-07T05:56:57.621Z,44.40
2018-08-07T05:59:26.524Z,44.80
2018-08-07T06:01:55.523Z,43.50
2018-08-07T06:04:24.394Z,44.30
2018-08-07T06:06:53.337Z,44.00
2018-08-07T06:09:22.247Z,43.10
2018-08-07T06:11:51.769Z,43.10
2018-08-07T06:14:20.668Z,42.60
2018-08-07T06:16:49.643Z,42.60
2018-08-07T06:19:18.589Z,43.00
2018-08-07T06:21:47.536Z,43.30
2018-08-07T06:24:16.594Z,43.40
2018-08-07T06:26:45.545Z,42.60
2018-08-07T06:29:14.486Z,41.90
2018-08-07T06:31:43.346Z,41.40
2018-08-07T06:34:12.307Z,40.80
2018-08-07T06:36:41.195Z,40.50
2018-08-07T06:39:10.350Z,40.00
2018-08-07T06:41:39.257Z,39.70
2018-08-07T06:44:08.137Z,40.20
2018-08-07T06:46:39.330Z,39.30
2018-08-07T06:49:08.864Z,39.00
2018-08-07T06:51:37.756Z,38.80
2018-08-07T06:54:07.437Z,38.70
2018-08-07T06:56:36.385Z,38.50
2018-08-07T06:59:05.765Z,38.30
2018-08-07T07:01:34.765Z,38.20
2018-08-07T07:04:03.785Z,38.20
2018-08-07T07:06:32.690Z,38.00
2018-08-07T07:09:01.560Z,37.90
2018-08-07T07:11:30.415Z,37.80
2018-08-07T07:13:59.371Z,37.60
2018-08-07T07:16:28.249Z,37.70
2018-08-07T07:18:57.099Z,37.70
2018-08-07T07:21:25.999Z,37.70
2018-08-07T07:23:54.921Z,37.70
2018-08-07T07:26:23.865Z,37.60
2018-08-07T07:28:52.791Z,37.60
2018-08-07T07:31:21.701Z,37.50
2018-08-07T07:33:50.682Z,37.30
2018-08-07T07:36:19.710Z,37.20
2018-08-07T07:38:48.680Z,37.20
2018-08-07T07:41:17.611Z,37.00
2018-08-07T07:43:46.565Z,36.80
2018-08-07T07:46:15.417Z,36.60
2018-08-07T07:48:44.333Z,36.40
2018-08-07T07:51:13.227Z,36.00
2018-08-07T07:53:42.607Z,35.90
2018-08-07T07:56:11.800Z,35.80
2018-08-07T07:58:40.730Z,35.60
2018-08-07T08:01:10.093Z,35.50
2018-08-07T08:03:39.497Z,35.30
2018-08-07T08:06:08.495Z,34.50
2018-08-07T08:08:37.486Z,34.50
2018-08-07T08:11:06.363Z,34.60
2018-08-07T08:13:35.141Z,34.40
2018-08-07T08:16:04.682Z,34.30
2018-08-07T08:18:33.558Z,34.00
2018-08-07T08:21:02.414Z,33.70
2018-08-07T08:23:31.335Z,33.60
2018-08-07T08:26:00.183Z,33.40
2018-08-07T08:28:29.463Z,33.00
2018-08-07T08:30:58.340Z,32.90
2018-08-07T08:33:27.224Z,32.80
2018-08-07T08:35:56.064Z,32.60
2018-08-07T08:38:24.912Z,32.40
2018-08-07T08:40:54.581Z,30.90
2018-08-07T08:43:23.408Z,30.80
2018-08-07T08:45:52.316Z,30.30
2018-08-07T08:48:21.255Z,30.30
2018-08-07T08:50:50.149Z,30.80
2018-08-07T08:53:19.042Z,30.20
2018-08-07T08:55:48.476Z,30.00
2018-08-07T08:58:17.353Z,29.90
2018-08-07T09:00:46.217Z,29.80
2018-08-07T09:03:15.220Z,29.60
2018-08-07T09:08:19.337Z,28.60
2018-08-07T09:10:48.435Z,28.40
2018-08-07T09:13:17.167Z,28.40
2018-08-07T09:15:46.103Z,28.50
2018-08-07T09:18:14.949Z,28.60
2018-08-07T09:20:43.835Z,28.60
2018-08-07T09:23:12.712Z,28.60
2018-08-07T09:25:41.676Z,28.60
2018-08-07T09:28:10.504Z,28.50
2018-08-07T09:30:39.402Z,28.40
2018-08-07T09:33:08.427Z,27.30
2018-08-07T09:35:37.318Z,27.40
2018-08-07T09:38:08.080Z,27.60
2018-08-07T09:40:36.924Z,27.40
2018-08-07T09:43:06.027Z,27.50
2018-08-07T09:45:35.834Z,27.50
2018-08-07T09:48:09.671Z,27.40
2018-08-07T09:50:38.787Z,27.40
2018-08-07T09:53:07.859Z,27.20
2018-08-07T09:55:36.778Z,27.20
2018-08-07T09:58:05.976Z,27.10
2018-08-07T10:00:40.099Z,27.00
2018-08-07T10:03:12.059Z,27.00
2018-08-07T10:05:41.793Z,26.80
2018-08-07T10:08:10.654Z,26.60
2018-08-07T10:10:39.487Z,26.60
2018-08-07T10:13:08.421Z,26.20
2018-08-07T10:15:37.280Z,26.20
2018-08-07T10:18:06.236Z,26.70
2018-08-07T10:20:36.051Z,26.00
2018-08-07T10:23:04.973Z,25.30
2018-08-07T10:25:33.907Z,24.20
2018-08-07T10:28:02.849Z,23.40
2018-08-07T10:30:31.738Z,24.20
2018-08-07T10:33:00.649Z,24.50
2018-08-07T10:35:29.577Z,24.60
2018-08-07T10:37:58.412Z,24.20
2018-08-07T10:40:28.024Z,23.00
2018-08-07T10:42:56.910Z,21.00
2018-08-07T10:45:26.536Z,22.80
2018-08-07T10:47:55.381Z,23.30
2018-08-07T10:50:25.591Z,22.90
2018-08-07T10:52:54.602Z,22.70
2018-08-07T10:55:24.113Z,22.00
2018-08-07T10:57:54.395Z,22.80
2018-08-07T11:00:25.202Z,23.20
2018-08-07T11:02:54.555Z,23.50
2018-08-07T11:05:24.108Z,23.60
2018-08-07T11:07:52.997Z,22.60
2018-08-07T11:10:22.456Z,22.90
2018-08-07T11:12:51.584Z,22.90
2018-08-07T11:15:25.003Z,21.90
2018-08-07T11:17:55.073Z,22.40
2018-08-07T11:20:23.923Z,22.50
2018-08-07T11:22:54.113Z,20.80
2018-08-07T11:25:24.281Z,20.60
2018-08-07T11:27:53.180Z,21.30
2018-08-07T11:30:24.406Z,21.80
2018-08-07T11:32:54.374Z,21.10
2018-08-07T11:35:23.976Z,22.10
2018-08-07T11:37:54.445Z,21.60
2018-08-07T11:40:24.173Z,20.00
2018-08-07T11:42:53.782Z,19.60
2018-08-07T11:45:24.755Z,19.10
2018-08-07T11:47:53.744Z,20.30
2018-08-07T11:50:25.120Z,21.00
2018-08-07T11:52:54.025Z,21.00
2018-08-07T11:55:23.713Z,20.70
2018-08-07T11:57:53.401Z,20.00
2018-08-07T12:00:26.948Z,20.50
2018-08-07T12:05:25.041Z,19.90
2018-08-07T12:07:54.202Z,19.60
2018-08-07T12:10:23.128Z,20.60
2018-08-07T12:12:52.041Z,20.70
2018-08-07T12:15:23.827Z,21.60
2018-08-07T12:17:52.808Z,21.10
2018-08-07T12:20:21.886Z,21.10
2018-08-07T12:22:51.432Z,20.80
2018-08-07T12:25:20.937Z,19.20
2018-08-07T12:27:51.071Z,19.60
2018-08-07T12:30:24.399Z,20.50
2018-08-07T12:32:53.301Z,21.30
2018-08-07T12:35:22.213Z,20.90
2018-08-07T12:37:52.016Z,19.50
2018-08-07T12:40:24.464Z,19.10
2018-08-07T12:42:56.070Z,18.90
2018-08-07T12:45:25.088Z,18.30
2018-08-07T12:47:54.704Z,17.90
2018-08-07T12:50:23.540Z,19.00
2018-08-07T12:52:52.519Z,19.70
2018-08-07T12:55:22.398Z,19.20
2018-08-07T12:57:52.169Z,18.90
2018-08-07T13:00:23.259Z,18.40
2018-08-07T13:02:52.165Z,19.00
2018-08-07T13:05:21.152Z,19.60
2018-08-07T13:07:50.105Z,19.60
2018-08-07T13:10:20.531Z,19.60
2018-08-07T13:12:50.289Z,19.80
2018-08-07T13:15:20.247Z,20.20
2018-08-07T13:17:49.540Z,20.60
2018-08-07T13:20:18.400Z,20.30
2018-08-07T13:22:48.028Z,18.70
2018-08-07T13:25:19.417Z,18.20
2018-08-07T13:27:48.284Z,18.90
2018-08-07T13:30:22.709Z,19.40
2018-08-07T13:32:51.661Z,18.60
2018-08-07T13:35:20.538Z,17.00
2018-08-07T13:37:50.960Z,18.10
2018-08-07T13:40:21.461Z,18.90
2018-08-07T13:42:50.544Z,18.80
2018-08-07T13:45:22.652Z,19.00
2018-08-07T13:47:51.597Z,19.30
2018-08-07T13:50:22.683Z,18.50
2018-08-07T13:52:51.985Z,19.00
2018-08-07T13:55:22.250Z,19.00
2018-08-07T13:57:51.145Z,17.60
2018-08-07T14:00:28.196Z,18.00
2018-08-07T14:02:57.937Z,18.40
2018-08-07T14:05:27.362Z,16.40
2018-08-07T14:07:56.956Z,17.70
2018-08-07T14:10:27.125Z,16.10
2018-08-07T14:12:56.304Z,17.20
2018-08-07T14:15:26.726Z,18.10
2018-08-07T14:17:55.629Z,18.10
2018-08-07T14:20:24.645Z,17.30
2018-08-07T14:22:53.514Z,18.20
2018-08-07T14:25:24.167Z,18.60
2018-08-07T14:27:53.771Z,18.30
2018-08-07T14:30:24.950Z,18.50
2018-08-07T14:32:53.891Z,18.60
2018-08-07T14:35:23.425Z,17.10
2018-08-07T14:37:54.092Z,18.00
2018-08-07T14:40:24.436Z,18.50
2018-08-07T14:42:53.702Z,18.80
2018-08-07T14:45:24.650Z,18.80
2018-08-07T14:47:54.167Z,19.20
2018-08-07T14:50:25.128Z,17.60
2018-08-07T14:52:54.196Z,18.60
2018-08-07T14:55:23.217Z,18.90
2018-08-07T14:57:52.586Z,18.90
2018-08-07T15:00:23.360Z,19.00
2018-08-07T15:02:53.567Z,17.60
2018-08-07T15:05:22.557Z,17.90
2018-08-07T15:07:52.813Z,18.60
2018-08-07T15:10:24.201Z,18.20
2018-08-07T15:12:56.456Z,18.60
2018-08-07T15:15:29.686Z,18.30
2018-08-07T15:17:59.181Z,17.80
2018-08-07T15:20:29.722Z,18.30
2018-08-07T15:22:58.834Z,18.00
2018-08-07T15:25:27.667Z,18.10
2018-08-07T15:27:56.970Z,18.40
2018-08-07T15:30:26.931Z,18.70
2018-08-07T15:32:56.421Z,18.70
2018-08-07T15:35:27.223Z,18.50
2018-08-07T15:37:56.111Z,18.60
2018-08-07T15:40:25.049Z,18.90
2018-08-07T15:42:54.660Z,18.80
2018-08-07T15:45:24.737Z,18.60
2018-08-07T15:47:53.914Z,19.00
2018-08-07T15:50:23.792Z,18.90
2018-08-07T15:52:55.540Z,19.10
2018-08-07T15:55:25.954Z,19.20
2018-08-07T15:57:54.866Z,19.40
2018-08-07T16:00:27.523Z,19.60
2018-08-07T16:02:56.385Z,19.10
2018-08-07T16:05:25.244Z,19.10
2018-08-07T16:07:55.030Z,19.10
2018-08-07T16:10:23.927Z,19.10
2018-08-07T16:12:53.904Z,18.40
2018-08-07T16:15:22.983Z,19.10
2018-08-07T16:17:52.832Z,19.50
2018-08-07T16:20:22.173Z,19.70
2018-08-07T16:22:50.998Z,19.90
2018-08-07T16:25:20.763Z,20.10
2018-08-07T16:27:50.169Z,19.60
2018-08-07T16:30:22.393Z,20.10
2018-08-07T16:32:51.114Z,20.40
2018-08-07T16:35:19.944Z,20.00
2018-08-07T16:37:49.155Z,20.40
2018-08-07T16:40:19.545Z,19.40
2018-08-07T16:42:49.220Z,19.60
2018-08-07T16:45:19.283Z,20.00
2018-08-07T16:47:48.234Z,19.80
2018-08-07T16:50:20.118Z,19.50
2018-08-07T16:52:50.054Z,19.90
2018-08-07T16:55:18.907Z,20.20
2018-08-07T16:57:47.752Z,20.00
2018-08-07T17:00:16.617Z,20.00
2018-08-07T17:02:45.677Z,20.30
2018-08-07T17:05:15.849Z,19.20
2018-08-07T17:07:45.903Z,19.50
2018-08-07T17:10:18.157Z,20.20
2018-08-07T17:12:47.775Z,19.70
2018-08-07T17:15:16.676Z,20.30
2018-08-07T17:17:45.884Z,19.80
2018-08-07T17:20:16.396Z,20.40
2018-08-07T17:22:45.462Z,20.50
2018-08-07T17:25:17.620Z,20.60
2018-08-07T17:27:47.493Z,20.70
2018-08-07T17:30:20.046Z,20.80
2018-08-07T17:32:48.983Z,20.40
2018-08-07T17:35:21.124Z,19.40
2018-08-07T17:37:51.404Z,19.80
2018-08-07T17:40:21.689Z,20.40
2018-08-07T17:42:50.548Z,20.40
2018-08-07T17:45:19.429Z,20.50
2018-08-07T17:47:48.676Z,20.50
2018-08-07T17:50:19.799Z,20.60
2018-08-07T17:52:48.678Z,20.60
2018-08-07T17:55:17.712Z,20.70
2018-08-07T17:57:47.083Z,20.80
2018-08-07T18:00:17.163Z,20.80
2018-08-07T18:02:46.403Z,20.90
2018-08-07T18:05:15.391Z,21.00
2018-08-07T18:07:46.419Z,21.20
2018-08-07T18:10:16.992Z,21.20
2018-08-07T18:12:45.931Z,21.30
2018-08-07T18:15:16.047Z,21.40
2018-08-07T18:17:45.478Z,21.60
2018-08-07T18:20:18.518Z,21.70
2018-08-07T18:22:47.361Z,21.70
2018-08-07T18:25:16.293Z,21.90
2018-08-07T18:27:45.153Z,22.00
2018-08-07T18:30:15.741Z,22.10
2018-08-07T18:35:19.296Z,22.40
2018-08-07T18:37:49.339Z,22.40
2018-08-07T18:40:18.370Z,22.50
2018-08-07T18:42:47.271Z,22.60
2018-08-07T18:45:16.237Z,22.70
2018-08-07T18:47:45.687Z,22.80
2018-08-07T18:50:16.740Z,22.90
2018-08-07T18:52:45.618Z,23.00
2018-08-07T18:55:14.876Z,23.10
2018-08-07T18:57:44.799Z,23.20
2018-08-07T19:00:15.697Z,23.30
2018-08-07T19:02:44.562Z,23.30
2018-08-07T19:05:15.116Z,23.50
2018-08-07T19:07:47.197Z,23.60
2018-08-07T19:10:17.418Z,23.70
2018-08-07T19:12:47.145Z,23.70
2018-08-07T19:15:17.683Z,23.90
2018-08-07T19:17:46.619Z,23.90
2018-08-07T19:20:17.619Z,24.00
2018-08-07T19:22:47.008Z,24.20
2018-08-07T19:25:15.928Z,24.30
2018-08-07T19:27:44.834Z,24.50
2018-08-07T19:30:15.484Z,24.50
2018-08-07T19:32:44.383Z,24.60
2018-08-07T19:35:13.659Z,24.60
2018-08-07T19:37:42.922Z,24.90
2018-08-07T19:40:14.635Z,25.10
2018-08-07T19:42:44.748Z,25.10
2018-08-07T19:45:14.622Z,25.10
2018-08-07T19:47:44.482Z,25.20
2018-08-07T19:50:14.839Z,25.30
2018-08-07T19:52:43.805Z,25.60
2018-08-07T19:55:15.344Z,25.60
2018-08-07T19:57:44.502Z,25.60
2018-08-07T20:00:18.360Z,25.90
2018-08-07T20:02:47.684Z,26.00
2018-08-07T20:05:16.737Z,26.20
2018-08-07T20:07:45.860Z,26.30
2018-08-07T20:10:15.894Z,26.30
2018-08-07T20:12:44.865Z,27.00
2018-08-07T20:15:19.345Z,26.40
2018-08-07T20:17:48.592Z,26.40
2018-08-07T20:20:49.304Z,26.50
2018-08-07T20:23:18.183Z,26.80
2018-08-07T20:25:47.075Z,27.00
2018-08-07T20:28:16.320Z,27.20
2018-08-07T20:30:45.348Z,27.30
2018-08-07T20:33:14.415Z,27.30
2018-08-07T20:35:43.537Z,27.40
2018-08-07T20:38:12.568Z,27.40
2018-08-07T20:40:41.918Z,27.40
2018-08-07T20:43:10.838Z,27.60
2018-08-07T20:45:39.763Z,27.80
2018-08-07T20:48:08.820Z,27.80
2018-08-07T20:50:37.736Z,28.20
2018-08-07T20:53:06.683Z,27.90
2018-08-07T20:55:36.291Z,28.50
2018-08-07T20:58:05.208Z,28.50
2018-08-07T21:00:34.104Z,28.50
2018-08-07T21:03:03.259Z,28.80
2018-08-07T21:05:32.128Z,28.80
2018-08-07T21:08:01.675Z,29.60
2018-08-07T21:10:32.298Z,29.40
2018-08-07T21:13:01.137Z,29.60
2018-08-07T21:15:30.551Z,29.90
2018-08-07T21:17:59.399Z,29.80
2018-08-07T21:20:28.339Z,29.90
2018-08-07T21:22:57.203Z,30.00
2018-08-07T21:25:26.024Z,30.10
2018-08-07T21:27:56.581Z,30.40
2018-08-07T21:30:28.296Z,30.70
2018-08-07T21:32:57.136Z,30.70
2018-08-07T21:35:25.985Z,30.90
2018-08-07T21:37:55.245Z,31.10
2018-08-07T21:40:24.756Z,31.00
2018-08-07T21:42:55.038Z,30.90
2018-08-07T21:45:23.923Z,31.10
2018-08-07T21:47:52.769Z,30.90
2018-08-07T21:50:23.896Z,30.60
2018-08-07T21:52:52.764Z,30.40
2018-08-07T21:55:21.680Z,30.30
2018-08-07T21:57:50.580Z,30.90
2018-08-07T22:00:26.628Z,31.40
2018-08-07T22:02:55.513Z,30.90
2018-08-07T22:05:24.372Z,31.30
2018-08-07T22:07:58.936Z,31.50
2018-08-07T22:10:27.867Z,32.00
2018-08-07T22:12:56.711Z,32.10
2018-08-07T22:15:25.556Z,31.90
2018-08-07T22:17:54.659Z,31.60
2018-08-07T22:20:23.555Z,31.50
2018-08-07T22:22:52.953Z,31.60
2018-08-07T22:25:22.179Z,31.90
2018-08-07T22:27:51.085Z,31.60
2018-08-07T22:30:21.319Z,31.90
2018-08-07T22:32:51.205Z,31.40
2018-08-07T22:35:20.792Z,31.40
2018-08-07T22:37:55.162Z,31.30
2018-08-07T22:40:24.108Z,31.30
2018-08-07T22:42:53.116Z,31.60
2018-08-07T22:45:22.682Z,31.60
2018-08-07T22:47:51.684Z,31.50
2018-08-07T22:50:20.606Z,31.70
2018-08-07T22:52:49.613Z,32.30
2018-08-07T22:55:19.713Z,32.30
2018-08-07T22:57:48.616Z,32.20
2018-08-07T23:00:18.979Z,32.10
2018-08-07T23:02:48.541Z,32.00
2018-08-07T23:05:18.247Z,32.00
2018-08-07T23:07:47.426Z,32.70
2018-08-07T23:10:19.096Z,33.40
2018-08-07T23:12:47.968Z,33.50
2018-08-07T23:15:18.421Z,34.20
2018-08-07T23:17:47.653Z,33.90
2018-08-07T23:20:17.857Z,34.30
2018-08-07T23:22:46.736Z,34.40
2018-08-07T23:25:15.945Z,34.40
2018-08-07T23:27:44.816Z,34.40
2018-08-07T23:30:15.495Z,34.70
2018-08-07T23:32:44.369Z,34.80
2018-08-07T23:35:14.069Z,34.50
2018-08-07T23:37:42.962Z,34.80
2018-08-07T23:40:12.835Z,34.40
2018-08-07T23:42:42.323Z,33.90
2018-08-07T23:45:13.395Z,33.60
2018-08-07T23:47:42.302Z,33.50
2018-08-07T23:50:12.328Z,33.30
2018-08-07T23:52:41.305Z,33.20
2018-08-07T23:55:10.465Z,33.20
2018-08-07T23:57:39.448Z,33.20
